Time;durP1;ratioP1;P1;durP2;ratioP2;P2;SDS_P1;SDS_P2;PMS_P1;PMS_P2;Temp;Humidity;BMP_temperature;BMP_pressure;BME280_temperature;BME280_humidity;BME280_pressure;Samples;Min_cycle;Max_cycle;Signal;HPM_P1;HPM_P2
2022/09/06 00:01:22;;;;;;;29.43;27.70;;;16.40;99.90;;;;;;4991657;28;20673;-74
2022/09/06 00:03:48;;;;;;;23.77;22.37;;;16.40;99.90;;;;;;4991040;28;20200;-75
2022/09/06 00:06:17;;;;;;;22.63;21.13;;;16.40;99.90;;;;;;4991628;28;20586;-75
2022/09/06 00:08:44;;;;;;;23.10;21.73;;;16.30;99.90;;;;;;4990396;28;20218;-75
2022/09/06 00:11:10;;;;;;;18.27;17.17;;;16.30;99.90;;;;;;4991419;28;20189;-74
2022/09/06 00:13:37;;;;;;;53.67;50.47;;;16.20;99.90;;;;;;4991170;28;20176;-75
2022/09/06 00:16:09;;;;;;;34.23;32.23;;;16.30;99.90;;;;;;4991541;28;20177;-75
2022/09/06 00:18:35;;;;;;;58.60;55.00;;;16.30;99.90;;;;;;4990552;28;20628;-75
2022/09/06 00:21:01;;;;;;;59.17;55.77;;;16.20;99.90;;;;;;4990354;28;20191;-75
2022/09/06 00:23:27;;;;;;;92.50;87.37;;;16.20;99.90;;;;;;4986814;28;20196;-75
2022/09/06 00:25:52;;;;;;;294.47;276.93;;;16.10;99.90;;;;;;4971033;28;20185;-75
2022/09/06 00:28:18;;;;;;;374.13;352.33;;;16.00;99.90;;;;;;4971018;28;20223;-75
2022/09/06 00:30:44;;;;;;;307.77;289.70;;;16.10;99.90;;;;;;4990280;28;20661;-75
2022/09/06 00:33:10;;;;;;;189.87;178.87;;;16.10;99.90;;;;;;5012151;28;20184;-74
2022/09/06 00:35:35;;;;;;;211.63;199.47;;;16.10;99.90;;;;;;4991828;28;20184;-75
2022/09/06 00:38:01;;;;;;;237.90;224.40;;;16.10;99.90;;;;;;4989623;28;20796;-75
2022/09/06 00:40:29;;;;;;;259.80;245.23;;;16.00;99.90;;;;;;4991095;28;20215;-75
2022/09/06 00:42:56;;;;;;;270.23;255.63;;;16.00;99.90;;;;;;4990182;28;20195;-75
2022/09/06 00:45:24;;;;;;;239.27;226.17;;;16.10;99.90;;;;;;4990104;28;20183;-75
2022/09/06 00:47:50;;;;;;;243.93;230.73;;;16.00;99.90;;;;;;4989160;28;20622;-75
2022/09/06 00:50:18;;;;;;;183.93;174.17;;;16.00;99.90;;;;;;4990958;28;20206;-75
2022/09/06 00:52:47;;;;;;;208.20;197.03;;;15.90;99.90;;;;;;4992235;28;20184;-75
2022/09/06 00:55:13;;;;;;;182.47;173.13;;;15.90;99.90;;;;;;4990478;28;20181;-76
2022/09/06 00:57:39;;;;;;;114.87;108.83;;;15.80;99.90;;;;;;4990211;28;20223;-76
2022/09/06 01:00:08;;;;;;;100.23;95.10;;;15.70;99.90;;;;;;4991020;28;20696;-76
2022/09/06 01:02:35;;;;;;;68.13;64.60;;;15.60;99.90;;;;;;4991249;28;20271;-76
2022/09/06 01:05:02;;;;;;;46.63;44.07;;;15.60;99.90;;;;;;4990938;28;20185;-75
2022/09/06 01:07:59;;;;;;;58.23;55.13;;;15.50;99.90;;;;;;4990306;28;20205;-76
2022/09/06 01:10:48;;;;;;;58.07;55.03;;;15.50;99.90;;;;;;4970090;28;20635;-75
2022/09/06 01:13:36;;;;;;;81.37;76.70;;;15.50;99.90;;;;;;4990930;28;20255;-75
2022/09/06 01:16:15;;;;;;;53.23;50.33;;;15.50;99.90;;;;;;4990118;28;20180;-76
2022/09/06 01:19:13;;;;;;;31.47;29.83;;;15.50;99.90;;;;;;4990378;28;20296;-75
2022/09/06 01:22:09;;;;;;;56.63;53.77;;;15.50;99.90;;;;;;4986672;28;20196;-76
2022/09/06 01:24:59;;;;;;;30.27;28.67;;;15.60;99.90;;;;;;4971506;28;20186;-76
2022/09/06 01:27:50;;;;;;;21.97;20.77;;;15.50;99.90;;;;;;4985771;28;20209;-76
2022/09/06 01:30:18;;;;;;;39.20;37.10;;;15.40;99.90;;;;;;4983585;28;20750;-75
2022/09/06 01:33:19;;;;;;;64.40;61.20;;;15.40;99.90;;;;;;4992865;28;20223;-75
2022/09/06 01:35:54;;;;;;;48.87;46.40;;;15.40;99.90;;;;;;4990974;28;20192;-76
2022/09/06 01:38:20;;;;;;;51.70;48.93;;;15.40;99.90;;;;;;4993355;28;20194;-73
2022/09/06 01:40:46;;;;;;;58.30;55.27;;;15.30;99.90;;;;;;4992786;28;20191;-73
2022/09/06 01:43:28;;;;;;;43.77;41.27;;;15.40;99.90;;;;;;4994554;28;20211;-76
2022/09/06 01:46:06;;;;;;;58.93;55.57;;;15.40;99.90;;;;;;4994353;28;20195;-73
2022/09/06 01:49:04;;;;;;;58.60;55.57;;;15.40;99.90;;;;;;4991932;28;20220;-76
2022/09/06 01:51:48;;;;;;;53.40;50.60;;;15.40;99.90;;;;;;4992378;28;20263;-74
2022/09/06 01:54:44;;;;;;;51.80;49.23;;;15.30;99.90;;;;;;4994447;28;20184;-74
2022/09/06 01:57:41;;;;;;;52.20;48.90;;;15.30;99.90;;;;;;4990924;28;20741;-74
2022/09/06 02:00:13;;;;;;;57.07;53.90;;;15.30;99.90;;;;;;4994510;28;20211;-74
2022/09/06 02:02:45;;;;;;;72.07;68.20;;;15.30;99.90;;;;;;4992882;28;20208;-74
2022/09/06 02:05:26;;;;;;;61.33;58.20;;;15.30;99.90;;;;;;4993727;28;20183;-74
2022/09/06 02:07:57;;;;;;;40.57;38.33;;;15.30;99.90;;;;;;4993030;28;20223;-74
2022/09/06 02:10:30;;;;;;;34.77;32.87;;;15.30;99.90;;;;;;5005131;28;20207;-75
2022/09/06 02:13:00;;;;;;;25.83;24.50;;;15.20;99.90;;;;;;5001134;28;20650;-74
2022/09/06 02:15:31;;;;;;;52.70;49.87;;;15.20;99.90;;;;;;4994040;28;20188;-74
2022/09/06 02:18:15;;;;;;;68.63;65.10;;;15.20;99.90;;;;;;4992840;28;20559;-75
2022/09/06 02:20:46;;;;;;;51.23;48.37;;;15.10;99.90;;;;;;4993461;28;20195;-75
2022/09/06 02:23:15;;;;;;;55.57;52.63;;;15.30;99.90;;;;;;4992684;28;20180;-75
2022/09/06 02:25:53;;;;;;;55.27;52.30;;;15.20;99.90;;;;;;4993763;28;20177;-74
2022/09/06 02:28:20;;;;;;;52.53;49.83;;;15.20;99.90;;;;;;4991780;28;20223;-75
2022/09/06 02:30:55;;;;;;;52.13;49.23;;;15.20;99.90;;;;;;4992467;28;20199;-75
2022/09/06 02:33:26;;;;;;;48.87;46.37;;;15.30;99.90;;;;;;4993631;28;20238;-75
2022/09/06 02:35:53;;;;;;;42.20;39.70;;;15.20;99.90;;;;;;4993382;28;20184;-74
2022/09/06 02:38:25;;;;;;;39.77;37.33;;;15.30;99.90;;;;;;4991334;28;20181;-75
2022/09/06 02:40:52;;;;;;;41.13;38.50;;;15.30;99.90;;;;;;4992371;28;20596;-75
2022/09/06 02:43:18;;;;;;;40.80;38.70;;;15.30;99.90;;;;;;4993272;28;20284;-74
2022/09/06 02:45:44;;;;;;;39.60;37.23;;;15.40;99.90;;;;;;4993357;28;20188;-75
2022/09/06 02:48:10;;;;;;;28.50;26.20;;;15.60;99.90;;;;;;4992442;28;20212;-74
2022/09/06 02:50:36;;;;;;;30.03;28.37;;;15.70;99.90;;;;;;4992171;28;20188;-74
2022/09/06 02:53:08;;;;;;;30.20;28.23;;;15.70;99.90;;;;;;4993404;28;20231;-74
2022/09/06 02:55:34;;;;;;;29.83;28.17;;;15.70;99.90;;;;;;4992788;28;20253;-75
2022/09/06 02:58:00;;;;;;;27.13;25.37;;;15.80;99.90;;;;;;4991453;28;20220;-74
2022/09/06 03:00:26;;;;;;;20.67;19.27;;;15.90;99.90;;;;;;4992939;28;20246;-74
2022/09/06 03:02:52;;;;;;;15.57;14.50;;;16.10;99.90;;;;;;4992591;28;20649;-74
2022/09/06 03:05:18;;;;;;;19.07;17.77;;;16.10;99.90;;;;;;4982090;28;20188;-74
2022/09/06 03:07:44;;;;;;;16.30;15.27;;;16.20;99.90;;;;;;4973068;28;20690;-74
2022/09/06 03:10:10;;;;;;;35.27;33.13;;;16.30;99.90;;;;;;4975957;28;20208;-74
2022/09/06 03:12:36;;;;;;;88.97;84.33;;;16.30;99.90;;;;;;4992189;28;20172;-74
2022/09/06 03:15:02;;;;;;;80.00;75.80;;;16.30;99.90;;;;;;4990023;28;20188;-75
2022/09/06 03:17:28;;;;;;;63.27;59.60;;;16.30;99.90;;;;;;4994659;28;20191;-74
2022/09/06 03:19:53;;;;;;;94.83;90.13;;;16.30;99.90;;;;;;4992334;28;20215;-74
2022/09/06 03:22:19;;;;;;;64.50;61.17;;;16.40;99.90;;;;;;4992016;28;20199;-74
2022/09/06 03:24:45;;;;;;;36.17;34.27;;;16.40;99.90;;;;;;4992410;28;20665;-75
2022/09/06 03:27:11;;;;;;;22.07;20.53;;;16.40;99.90;;;;;;4990970;28;20180;-75
2022/09/06 03:29:36;;;;;;;22.67;21.30;;;16.30;99.90;;;;;;4988805;28;20200;-76
2022/09/06 03:32:02;;;;;;;62.50;59.30;;;16.20;99.90;;;;;;4991919;28;20200;-75
2022/09/06 03:34:28;;;;;;;89.80;84.83;;;16.20;99.90;;;;;;4992052;28;20180;-75
2022/09/06 03:36:54;;;;;;;57.50;54.37;;;16.10;99.90;;;;;;4991259;28;20274;-75
2022/09/06 03:39:20;;;;;;;35.93;33.87;;;16.00;99.90;;;;;;4991904;28;20223;-76
2022/09/06 03:41:45;;;;;;;60.33;56.97;;;15.90;99.90;;;;;;4992104;28;20596;-76
2022/09/06 03:44:11;;;;;;;94.90;89.57;;;15.80;99.90;;;;;;4991976;28;20199;-76
2022/09/06 03:46:37;;;;;;;71.17;67.27;;;15.70;99.90;;;;;;4990882;28;20315;-77
2022/09/06 03:49:03;;;;;;;47.53;44.97;;;15.70;99.90;;;;;;4992009;28;20216;-75
2022/09/06 03:51:28;;;;;;;29.53;27.50;;;15.60;99.90;;;;;;4993920;28;20181;-76
2022/09/06 03:53:54;;;;;;;48.27;45.33;;;15.80;99.90;;;;;;4992154;28;20210;-76
2022/09/06 03:56:20;;;;;;;21.47;19.43;;;15.80;99.90;;;;;;4992064;28;20275;-76
2022/09/06 03:58:46;;;;;;;25.60;23.93;;;15.70;99.90;;;;;;4990612;28;20215;-76
2022/09/06 04:01:12;;;;;;;34.67;32.50;;;15.80;99.90;;;;;;4992013;28;20212;-76
2022/09/06 04:03:39;;;;;;;42.97;40.53;;;15.70;99.90;;;;;;4992242;28;20275;-76
2022/09/06 04:06:06;;;;;;;40.33;38.07;;;15.80;99.90;;;;;;4990850;28;20239;-76
2022/09/06 04:08:32;;;;;;;36.27;34.13;;;16.00;99.90;;;;;;4990910;28;20239;-76
2022/09/06 04:10:58;;;;;;;40.13;37.70;;;15.90;99.90;;;;;;4991807;28;20207;-76
2022/09/06 04:13:26;;;;;;;24.60;22.87;;;15.80;99.90;;;;;;4991672;28;20231;-76
2022/09/06 04:15:52;;;;;;;27.57;25.70;;;15.80;99.90;;;;;;4991922;28;20176;-77
2022/09/06 04:18:18;;;;;;;28.27;26.57;;;15.80;99.90;;;;;;4990931;28;20188;-77
2022/09/06 04:20:48;;;;;;;21.67;20.23;;;15.80;99.90;;;;;;4991938;28;20191;-76
2022/09/06 04:23:14;;;;;;;24.43;22.47;;;15.70;99.90;;;;;;4991734;28;20191;-76
2022/09/06 04:25:43;;;;;;;28.47;26.20;;;15.80;99.90;;;;;;4990455;28;20187;-76
2022/09/06 04:28:09;;;;;;;27.57;25.43;;;15.80;99.90;;;;;;4990691;28;20208;-76
2022/09/06 04:30:35;;;;;;;24.80;22.90;;;15.80;99.90;;;;;;4991311;28;20176;-76
2022/09/06 04:33:01;;;;;;;33.67;31.67;;;15.80;99.90;;;;;;4991537;28;20649;-76
2022/09/06 04:35:26;;;;;;;35.67;33.43;;;15.70;99.90;;;;;;4991606;28;20187;-76
2022/09/06 04:37:52;;;;;;;34.37;32.27;;;15.70;99.90;;;;;;4990693;28;20191;-76
2022/09/06 04:40:18;;;;;;;48.53;45.77;;;15.70;99.90;;;;;;5056757;22;20236;-77
2022/09/06 04:42:44;;;;;;;57.20;54.00;;;15.70;99.90;;;;;;5067064;28;20266;-74
2022/09/06 04:45:10;;;;;;;50.87;47.77;;;15.90;99.90;;;;;;5050732;28;20170;-74
2022/09/06 04:47:36;;;;;;;58.57;55.17;;;15.90;99.90;;;;;;5048476;28;20292;-74
2022/09/06 04:50:01;;;;;;;56.07;52.77;;;16.00;99.90;;;;;;5050600;28;20281;-74
2022/09/06 04:52:27;;;;;;;61.40;57.90;;;15.90;99.90;;;;;;5039968;28;20183;-74
2022/09/06 04:54:53;;;;;;;71.33;67.23;;;15.90;99.90;;;;;;5047422;28;20210;-74
2022/09/06 04:57:19;;;;;;;59.87;56.17;;;15.90;99.90;;;;;;5049715;28;20596;-74
2022/09/06 04:59:44;;;;;;;61.73;57.77;;;15.90;99.90;;;;;;5049652;28;20802;-74
2022/09/06 05:02:10;;;;;;;71.50;67.50;;;15.90;99.90;;;;;;5049117;28;20537;-74
2022/09/06 05:04:36;;;;;;;54.67;50.90;;;16.10;99.90;;;;;;5050546;28;20225;-74
2022/09/06 05:07:07;;;;;;;42.03;39.63;;;16.10;99.90;;;;;;5051321;28;20553;-75
2022/09/06 05:09:33;;;;;;;54.40;51.27;;;16.10;99.90;;;;;;5053013;28;20202;-74
2022/09/06 05:12:00;;;;;;;64.17;60.60;;;16.20;99.90;;;;;;5052701;28;20178;-74
2022/09/06 05:14:27;;;;;;;185.33;174.70;;;16.40;99.90;;;;;;5053416;28;20638;-74
2022/09/06 05:16:53;;;;;;;56.20;53.10;;;16.40;99.90;;;;;;5052185;28;20179;-72
2022/09/06 05:19:20;;;;;;;55.40;51.80;;;16.50;99.90;;;;;;5052849;28;20214;-72
2022/09/06 05:21:46;;;;;;;47.73;45.03;;;16.50;99.90;;;;;;5053267;28;20182;-72
2022/09/06 05:24:12;;;;;;;43.47;40.93;;;16.50;99.90;;;;;;5054086;28;20182;-72
2022/09/06 05:26:38;;;;;;;41.00;38.37;;;16.50;99.90;;;;;;5053900;28;20304;-71
2022/09/06 05:29:03;;;;;;;46.43;43.80;;;16.60;99.90;;;;;;5053234;28;20729;-73
2022/09/06 05:31:33;;;;;;;45.20;42.53;;;16.60;99.90;;;;;;5053983;28;20182;-73
2022/09/06 05:34:00;;;;;;;52.63;49.73;;;16.60;99.90;;;;;;5053748;28;20189;-72
2022/09/06 05:36:27;;;;;;;53.00;50.17;;;16.70;99.90;;;;;;5051920;28;20181;-72
2022/09/06 05:38:54;;;;;;;56.47;53.07;;;16.90;99.90;;;;;;5051577;28;20616;-73
2022/09/06 05:41:22;;;;;;;33.63;31.47;;;16.90;99.90;;;;;;5053662;28;20216;-72
2022/09/06 05:43:48;;;;;;;47.40;44.43;;;16.90;99.90;;;;;;5051794;28;20182;-73
2022/09/06 05:46:15;;;;;;;35.03;32.97;;;17.00;99.90;;;;;;5052736;28;20232;-73
2022/09/06 05:48:42;;;;;;;48.30;45.57;;;17.10;99.90;;;;;;5051326;28;20217;-73
2022/09/06 05:51:12;;;;;;;52.13;49.03;;;17.20;99.90;;;;;;5053141;28;20566;-73
2022/09/06 05:53:40;;;;;;;21.77;20.40;;;17.30;99.90;;;;;;5052242;28;20181;-73
2022/09/06 05:56:07;;;;;;;24.57;22.20;;;17.30;99.90;;;;;;5053529;28;20178;-73
2022/09/06 05:58:33;;;;;;;19.90;18.63;;;17.40;99.90;;;;;;5051480;28;20244;-73
2022/09/06 06:01:16;;;;;;;31.93;29.93;;;17.50;99.90;;;;;;5052385;28;20577;-73
2022/09/06 06:03:48;;;;;;;237.40;224.63;;;17.70;99.90;;;;;;5053348;28;20724;-73
2022/09/06 06:06:14;;;;;;;76.27;71.77;;;17.70;99.90;;;;;;5053244;28;20655;-73
2022/09/06 06:08:40;;;;;;;52.83;49.57;;;17.80;99.90;;;;;;5051943;28;20214;-72
2022/09/06 06:11:06;;;;;;;28.80;27.00;;;17.90;99.90;;;;;;5052246;28;20178;-74
2022/09/06 06:13:38;;;;;;;68.97;65.13;;;17.90;99.90;;;;;;5053340;28;20228;-74
2022/09/06 06:16:10;;;;;;;31.80;29.80;;;17.90;99.90;;;;;;5053585;28;20205;-74
2022/09/06 06:18:36;;;;;;;25.90;24.00;;;18.00;99.90;;;;;;5052028;28;20251;-74
2022/09/06 06:21:17;;;;;;;36.03;33.93;;;18.00;99.90;;;;;;5053146;28;20185;-74
2022/09/06 06:23:45;;;;;;;39.57;37.27;;;18.10;99.90;;;;;;5052023;28;20189;-74
2022/09/06 06:26:12;;;;;;;14.37;13.47;;;18.10;99.90;;;;;;5051799;28;20178;-74
2022/09/06 06:28:38;;;;;;;19.60;18.20;;;18.20;99.90;;;;;;5050806;28;20301;-74
2022/09/06 06:31:06;;;;;;;21.50;20.20;;;18.30;99.90;;;;;;5052987;28;20181;-74
2022/09/06 06:33:32;;;;;;;18.77;17.57;;;18.30;99.90;;;;;;5052773;28;20595;-74
2022/09/06 06:36:03;;;;;;;16.57;15.60;;;18.40;99.90;;;;;;5051917;28;20205;-74
2022/09/06 06:38:33;;;;;;;17.37;16.03;;;18.40;99.90;;;;;;5052418;28;20186;-74
2022/09/06 06:41:00;;;;;;;16.90;15.80;;;18.50;99.90;;;;;;5052744;28;20197;-74
2022/09/06 06:43:27;;;;;;;18.23;17.03;;;18.70;99.90;;;;;;5051435;28;20285;-74
2022/09/06 06:45:53;;;;;;;15.00;13.70;;;18.70;99.90;;;;;;5051375;28;20639;-74
2022/09/06 06:48:20;;;;;;;38.37;36.23;;;18.80;99.90;;;;;;5051641;28;20244;-74
2022/09/06 06:50:46;;;;;;;42.07;39.67;;;18.90;99.90;;;;;;5052535;28;20587;-74
2022/09/06 06:53:12;;;;;;;14.77;13.50;;;19.00;99.90;;;;;;5052252;28;20183;-74
2022/09/06 06:55:38;;;;;;;76.47;72.33;;;19.10;99.90;;;;;;5052903;28;20182;-74
2022/09/06 06:58:04;;;;;;;298.57;283.40;;;19.20;99.90;;;;;;5054947;28;20178;-75
2022/09/06 07:00:30;;;;;;;129.97;123.27;;;19.30;99.90;;;;;;5053356;28;20220;-73
2022/09/06 07:02:56;;;;;;;142.60;135.00;;;19.30;99.90;;;;;;5052271;28;20185;-72
2022/09/06 07:05:23;;;;;;;101.60;96.43;;;19.30;99.90;;;;;;5052669;28;20178;-73
2022/09/06 07:07:48;;;;;;;102.37;97.10;;;19.20;99.90;;;;;;5049471;28;20241;-73
2022/09/06 07:10:15;;;;;;;275.53;261.47;;;19.10;99.90;;;;;;5052405;28;20561;-73
2022/09/06 07:12:41;;;;;;;374.83;355.17;;;19.00;99.90;;;;;;5052015;28;20175;-72
2022/09/06 07:15:07;;;;;;;233.07;221.00;;;19.00;99.90;;;;;;5052271;28;20182;-73
2022/09/06 07:17:34;;;;;;;360.23;341.73;;;19.20;99.90;;;;;;5052540;28;20185;-72
2022/09/06 07:20:00;;;;;;;153.57;145.90;;;19.40;99.90;;;;;;5051934;28;20206;-73
2022/09/06 07:22:26;;;;;;;85.90;81.40;;;19.40;99.90;;;;;;5051965;28;20178;-73
2022/09/06 07:24:52;;;;;;;66.57;62.77;;;19.70;99.90;;;;;;5051940;28;20187;-73
2022/09/06 07:27:18;;;;;;;29.58;27.75;;;20.20;99.90;;;;;;5051126;28;20213;-74
2022/09/06 07:29:44;;;;;;;55.10;52.28;;;20.90;99.90;;;;;;5049740;28;20276;-73
2022/09/06 07:32:10;;;;;;;19.77;18.55;;;21.60;99.90;;;;;;5051572;28;20517;-74
2022/09/06 07:34:38;;;;;;;27.15;25.35;;;22.50;99.90;;;;;;5051753;28;20174;-74
2022/09/06 07:37:04;;;;;;;20.20;19.08;;;23.30;99.90;;;;;;5049779;28;20275;-74
2022/09/06 07:39:31;;;;;;;12.68;11.77;;;23.80;99.90;;;;;;5051414;28;20649;-74
2022/09/06 07:41:58;;;;;;;7.75;5.68;;;24.20;99.90;;;;;;5051710;28;20236;-74
2022/09/06 07:44:23;;;;;;;7.97;7.10;;;24.60;99.90;;;;;;5051594;28;20186;-74
2022/09/06 07:46:50;;;;;;;10.82;9.77;;;24.30;99.90;;;;;;5050750;28;20189;-74
2022/09/06 07:49:16;;;;;;;12.63;11.88;;;23.90;99.90;;;;;;5051563;28;20218;-74
2022/09/06 07:51:42;;;;;;;66.40;63.05;;;24.00;99.90;;;;;;5051391;28;20181;-74
2022/09/06 07:54:09;;;;;;;184.80;175.95;;;24.00;99.90;;;;;;5050273;28;20662;-74
2022/09/06 07:56:35;;;;;;;192.88;183.50;;;24.10;99.90;;;;;;5051356;28;20583;-73
2022/09/06 07:59:01;;;;;;;210.27;200.00;;;24.10;99.90;;;;;;5050593;28;20297;-74
2022/09/06 08:01:29;;;;;;;163.57;155.30;;;24.10;99.90;;;;;;5051398;28;20193;-74
2022/09/06 08:04:01;;;;;;;122.30;116.18;;;24.40;99.90;;;;;;5051425;28;20197;-74
2022/09/06 08:06:28;;;;;;;22.88;21.63;;;25.40;99.90;;;;;;5052309;28;20186;-74
2022/09/06 08:08:55;;;;;;;14.80;14.02;;;26.20;99.90;;;;;;5048629;28;20585;-74
2022/09/06 08:11:22;;;;;;;12.70;11.77;;;26.70;99.90;;;;;;5051182;28;20182;-74
2022/09/06 08:13:50;;;;;;;16.70;15.20;;;26.50;99.90;;;;;;5051023;28;20189;-74
2022/09/06 08:16:16;;;;;;;12.98;12.27;;;26.40;99.90;;;;;;5051174;28;20277;-74
2022/09/06 08:18:42;;;;;;;16.10;14.85;;;26.00;99.90;;;;;;5049394;28;20190;-74
2022/09/06 08:21:11;;;;;;;19.80;18.70;;;26.30;99.90;;;;;;5051312;28;20187;-74
2022/09/06 08:23:41;;;;;;;15.50;14.52;;;26.40;99.90;;;;;;5051098;28;20190;-74
2022/09/06 08:26:07;;;;;;;15.77;14.85;;;26.50;99.90;;;;;;5049869;28;20193;-73
2022/09/06 08:28:33;;;;;;;13.68;12.73;;;26.30;99.90;;;;;;5050268;28;20229;-74
2022/09/06 08:31:07;;;;;;;10.05;9.55;;;26.40;99.90;;;;;;5050113;28;20178;-74
2022/09/06 08:33:34;;;;;;;10.93;10.32;;;26.70;99.90;;;;;;5049719;28;20178;-74
2022/09/06 08:36:01;;;;;;;7.28;6.88;;;27.10;99.90;;;;;;5051319;28;20495;-74
2022/09/06 08:38:27;;;;;;;9.50;8.90;;;27.00;99.90;;;;;;5049952;28;20182;-74
2022/09/06 08:41:05;;;;;;;6.20;5.75;;;27.30;99.90;;;;;;5053128;28;20741;-73
2022/09/06 08:43:31;;;;;;;9.48;8.50;;;27.80;99.90;;;;;;5053772;28;20182;-74
2022/09/06 08:45:57;;;;;;;7.13;6.60;;;27.50;99.90;;;;;;5053951;28;20178;-74
2022/09/06 08:48:26;;;;;;;8.00;7.53;;;27.70;99.90;;;;;;5053557;28;20591;-74
2022/09/06 08:51:20;;;;;;;10.10;9.07;;;27.80;99.90;;;;;;5053583;28;20178;-73
2022/09/06 08:53:46;;;;;;;9.50;8.80;;;28.00;99.90;;;;;;5054730;28;20592;-73
2022/09/06 08:56:20;;;;;;;10.73;9.93;;;27.90;99.90;;;;;;5053440;28;20170;-74
2022/09/06 08:59:05;;;;;;;10.30;9.60;;;28.10;99.90;;;;;;5052688;28;20599;-74
2022/09/06 09:02:04;;;;;;;10.80;10.13;;;28.20;99.90;;;;;;5054608;28;20209;-73
2022/09/06 09:04:32;;;;;;;7.45;6.95;;;28.10;99.90;;;;;;5043641;28;20608;-74
2022/09/06 09:07:18;;;;;;;8.73;8.05;;;27.90;99.90;;;;;;5053718;28;20178;-73
2022/09/06 09:09:45;;;;;;;8.23;7.82;;;27.70;99.90;;;;;;5053796;28;20209;-73
2022/09/06 09:12:14;;;;;;;9.05;8.35;;;27.70;99.90;;;;;;5054417;28;20213;-74
2022/09/06 09:14:42;;;;;;;10.45;9.75;;;27.90;99.90;;;;;;5054685;28;20538;-72
2022/09/06 09:17:19;;;;;;;9.60;8.93;;;28.40;99.90;;;;;;5053771;28;20175;-72
2022/09/06 09:19:45;;;;;;;6.45;5.57;;;29.10;99.90;;;;;;5054326;28;20205;-74
2022/09/06 09:22:16;;;;;;;8.40;7.78;;;29.50;99.90;;;;;;5054044;28;20718;-73
2022/09/06 09:24:43;;;;;;;6.93;6.28;;;29.70;99.90;;;;;;5054197;28;20190;-72
2022/09/06 09:27:11;;;;;;;7.53;6.93;;;30.10;99.90;;;;;;5053039;28;20183;-73
2022/09/06 09:29:52;;;;;;;8.95;8.18;;;30.40;99.90;;;;;;5054036;28;20214;-73
2022/09/06 09:32:39;;;;;;;9.27;5.30;;;30.20;99.90;;;;;;5054189;28;20285;-72
2022/09/06 09:35:51;;;;;;;10.05;9.32;;;29.70;99.90;;;;;;5054365;28;20554;-73
2022/09/06 09:38:26;;;;;;;8.93;8.02;;;29.10;99.90;;;;;;5051001;28;20194;-73
2022/09/06 09:40:58;;;;;;;10.80;9.70;;;29.10;99.90;;;;;;5052770;28;20193;-73
2022/09/06 09:43:30;;;;;;;6.00;5.60;;;28.80;99.90;;;;;;5053868;28;20263;-73
2022/09/06 09:46:06;;;;;;;8.38;7.78;;;28.90;99.90;;;;;;5052668;28;20593;-73
2022/09/06 09:48:32;;;;;;;8.50;7.93;;;29.00;99.90;;;;;;5052917;28;20212;-73
2022/09/06 09:51:17;;;;;;;5.47;5.13;;;29.60;99.90;;;;;;5053706;28;20217;-73
2022/09/06 09:53:58;;;;;;;6.65;5.95;;;30.90;99.90;;;;;;5051969;28;20194;-73
2022/09/06 09:56:31;;;;;;;10.23;9.48;;;32.00;99.50;;;;;;5053628;28;20223;-73
2022/09/06 09:58:58;;;;;;;26.42;24.63;;;33.00;98.30;;;;;;5051474;28;20206;-73
2022/09/06 10:01:30;;;;;;;62.63;59.22;;;34.00;95.10;;;;;;5052285;28;20655;-73
2022/09/06 10:04:07;;;;;;;90.90;86.28;;;33.80;92.20;;;;;;5053582;28;20550;-73
2022/09/06 10:06:34;;;;;;;56.97;53.78;;;33.40;93.40;;;;;;5053379;28;20182;-72
2022/09/06 10:09:17;;;;;;;90.97;86.20;;;32.70;92.70;;;;;;5051133;28;20245;-73
2022/09/06 10:11:55;;;;;;;88.43;83.90;;;32.30;93.40;;;;;;5053304;28;20205;-73
2022/09/06 10:14:32;;;;;;;112.07;106.50;;;32.50;93.50;;;;;;5053187;28;20190;-73
2022/09/06 10:16:59;;;;;;;45.63;43.13;;;33.00;92.90;;;;;;5053514;28;20189;-74
2022/09/06 10:19:39;;;;;;;25.45;23.50;;;33.60;91.00;;;;;;5052175;28;20289;-74
2022/09/06 10:22:25;;;;;;;23.63;22.02;;;33.70;90.10;;;;;;5052281;28;20658;-74
2022/09/06 10:25:06;;;;;;;19.92;18.38;;;34.10;89.70;;;;;;5051991;28;20178;-74
2022/09/06 10:27:34;;;;;;;10.82;9.95;;;33.90;89.10;;;;;;5052096;28;20665;-74
2022/09/06 10:30:07;;;;;;;12.07;9.38;;;34.20;88.20;;;;;;5052939;28;20285;-71
2022/09/06 10:32:54;;;;;;;16.60;15.23;;;34.50;88.20;;;;;;5052899;28;20189;-72
2022/09/06 10:35:27;;;;;;;49.15;46.17;;;34.80;85.40;;;;;;5052671;28;20182;-72
2022/09/06 10:38:07;;;;;;;85.60;80.90;;;34.50;83.60;;;;;;5051901;28;20274;-73
2022/09/06 10:40:43;;;;;;;87.63;83.00;;;34.90;81.80;;;;;;5051442;28;20210;-73
2022/09/06 10:43:17;;;;;;;82.13;77.45;;;34.50;83.30;;;;;;5052613;28;20182;-72
2022/09/06 10:46:10;;;;;;;37.17;34.97;;;33.90;82.40;;;;;;5051452;28;20186;-72
2022/09/06 10:48:44;;;;;;;34.35;32.10;;;33.70;83.90;;;;;;5051486;28;20210;-72
2022/09/06 10:51:20;;;;;;;78.82;74.63;;;34.60;83.40;;;;;;5052641;28;20288;-72
2022/09/06 10:54:05;;;;;;;73.10;69.03;;;35.30;79.30;;;;;;5053232;28;20201;-72
2022/09/06 10:56:51;;;;;;;64.93;61.63;;;35.40;78.40;;;;;;5051528;28;20182;-73
2022/09/06 10:59:26;;;;;;;101.50;96.30;;;35.30;78.60;;;;;;5052255;28;20224;-74
2022/09/06 11:02:00;;;;;;;100.13;94.80;;;34.60;81.50;;;;;;5052318;28;20240;-73
2022/09/06 11:04:37;;;;;;;112.35;106.82;;;34.40;80.70;;;;;;5052139;28;20549;-73
2022/09/06 11:07:29;;;;;;;82.38;77.90;;;33.70;82.40;;;;;;5050289;28;20678;-73
2022/09/06 11:10:17;;;;;;;49.50;46.50;;;33.30;82.20;;;;;;5052159;28;20221;-73
2022/09/06 11:12:52;;;;;;;7.93;7.25;;;32.50;83.70;;;;;;5051970;28;20194;-73
2022/09/06 11:15:20;;;;;;;11.43;9.93;;;32.40;86.60;;;;;;5052252;28;20181;-73
2022/09/06 11:18:02;;;;;;;9.73;6.40;;;32.50;83.70;;;;;;5049847;28;20208;-73
2022/09/06 11:20:35;;;;;;;28.73;26.48;;;32.30;85.10;;;;;;5050660;28;20198;-73
2022/09/06 11:23:09;;;;;;;42.58;40.00;;;32.20;88.10;;;;;;5051811;28;20182;-73
2022/09/06 11:26:13;;;;;;;30.05;28.20;;;32.00;88.10;;;;;;5050853;28;20205;-73
2022/09/06 11:28:46;;;;;;;26.75;24.83;;;31.70;86.60;;;;;;5050929;28;20209;-73
2022/09/06 11:31:26;;;;;;;102.10;96.63;;;31.70;86.60;;;;;;5052881;28;20645;-73
2022/09/06 11:34:11;;;;;;;61.63;58.30;;;31.60;89.00;;;;;;5052149;28;20204;-73
2022/09/06 11:36:44;;;;;;;85.22;80.78;;;31.90;87.10;;;;;;5051740;28;20178;-73
2022/09/06 11:39:10;;;;;;;66.25;62.63;;;31.80;88.00;;;;;;5049909;28;20264;-73
2022/09/06 11:41:39;;;;;;;58.95;55.47;;;31.90;87.80;;;;;;5051461;28;20182;-73
2022/09/06 11:44:07;;;;;;;57.40;54.20;;;31.60;87.20;;;;;;5051711;28;20193;-73
2022/09/06 11:46:33;;;;;;;59.10;55.85;;;31.60;88.20;;;;;;5051790;28;20202;-73
2022/09/06 11:49:02;;;;;;;112.40;106.50;;;31.80;86.70;;;;;;5050626;28;20695;-73
2022/09/06 11:51:33;;;;;;;48.97;45.60;;;32.30;86.40;;;;;;5051579;28;20186;-73
2022/09/06 11:54:03;;;;;;;65.80;62.13;;;32.30;85.20;;;;;;5051389;28;20261;-73
2022/09/06 11:56:34;;;;;;;55.13;51.97;;;32.30;85.00;;;;;;5051314;28;20186;-72
2022/09/06 11:59:17;;;;;;;37.03;34.63;;;32.50;84.60;;;;;;5049543;28;20452;-73
2022/09/06 12:02:01;;;;;;;36.03;33.53;;;32.80;84.10;;;;;;5050241;28;20277;-73
2022/09/06 12:05:03;;;;;;;13.05;8.52;;;33.70;82.40;;;;;;5051235;28;20193;-74
2022/09/06 12:07:31;;;;;;;13.38;12.07;;;34.30;80.70;;;;;;5050779;28;20210;-74
2022/09/06 12:10:00;;;;;;;9.50;8.70;;;33.70;81.20;;;;;;5051362;28;20229;-73
2022/09/06 12:12:45;;;;;;;28.23;25.83;;;33.40;81.60;;;;;;5050919;28;20186;-74
2022/09/06 12:15:23;;;;;;;42.45;39.83;;;33.90;79.50;;;;;;5050685;28;20180;-73
2022/09/06 12:17:49;;;;;;;80.95;76.18;;;34.50;79.30;;;;;;5048884;28;20185;-73
2022/09/06 12:20:46;;;;;;;134.43;127.53;;;34.90;78.70;;;;;;5050940;28;20198;-74
2022/09/06 12:23:35;;;;;;;103.35;97.57;;;35.20;77.80;;;;;;5051393;28;20182;-74
2022/09/06 12:26:02;;;;;;;51.00;48.05;;;35.50;77.60;;;;;;5041384;28;20244;-73
2022/09/06 12:28:51;;;;;;;64.47;61.03;;;35.70;74.50;;;;;;5049933;28;20214;-73
2022/09/06 12:31:38;;;;;;;21.80;19.73;;;36.30;74.80;;;;;;5050998;28;20213;-73
2022/09/06 12:34:22;;;;;;;22.05;18.30;;;35.90;72.30;;;;;;5050743;28;20716;-73
2022/09/06 12:37:06;;;;;;;25.85;23.95;;;35.60;72.20;;;;;;5048930;28;20205;-73
2022/09/06 12:39:33;;;;;;;15.75;13.13;;;35.30;74.60;;;;;;5050717;28;20220;-74
2022/09/06 12:42:20;;;;;;;16.85;15.68;;;36.10;72.10;;;;;;5049718;28;20273;-73
2022/09/06 12:44:50;;;;;;;40.95;38.05;;;36.20;71.00;;;;;;5050943;28;20308;-73
2022/09/06 12:47:29;;;;;;;64.63;60.95;;;36.30;69.60;;;;;;5050006;28;20178;-73